createdAt,value
2017-12-27T00:02:33.501Z,96532.92
2017-12-27T00:05:07.592Z,96521.50
2017-12-27T00:07:41.919Z,96512.47
2017-12-27T00:10:16.417Z,96508.36
2017-12-27T00:12:50.634Z,96498.35
2017-12-27T00:15:25.451Z,96488.68
2017-12-27T00:18:00.667Z,96479.28
2017-12-27T00:20:34.609Z,96487.23
2017-12-27T00:23:09.484Z,96476.08
2017-12-27T00:25:45.301Z,96475.02
2017-12-27T00:41:40.775Z,96439.03
2017-12-27T00:44:09.911Z,96422.72
2017-12-27T00:46:38.219Z,96427.30
2017-12-27T00:49:06.603Z,96426.63
2017-12-27T00:51:34.928Z,96413.41
2017-12-27T00:54:03.240Z,96411.81
2017-12-27T00:56:32.292Z,96400.64
2017-12-27T00:59:00.611Z,96389.72
2017-12-27T01:01:28.919Z,96387.26
2017-12-27T01:03:57.756Z,96381.58
2017-12-27T01:06:26.717Z,96380.64
2017-12-27T01:08:55.095Z,96376.19
2017-12-27T01:11:23.481Z,96380.71
2017-12-27T01:13:51.896Z,96382.75
2017-12-27T01:16:20.741Z,96381.06
2017-12-27T01:18:49.840Z,96379.38
2017-12-27T01:21:18.549Z,96363.31
2017-12-27T01:23:47.039Z,96359.45
2017-12-27T01:26:15.489Z,96353.11
2017-12-27T01:28:44.619Z,96344.17
2017-12-27T01:31:13.576Z,96331.31
2017-12-27T01:33:42.724Z,96323.09
2017-12-27T01:36:11.705Z,96325.03
2017-12-27T01:38:40.251Z,96318.22
2017-12-27T01:41:09.695Z,96306.57
2017-12-27T01:43:38.170Z,96299.58
2017-12-27T01:46:06.504Z,96294.34
2017-12-27T01:48:34.896Z,96292.48
2017-12-27T01:51:03.800Z,96259.03
2017-12-27T01:53:32.104Z,96260.83
2017-12-27T01:56:01.964Z,96260.22
2017-12-27T01:58:30.289Z,96261.67
2017-12-27T02:00:58.625Z,96257.42
2017-12-27T02:03:27.520Z,96242.55
2017-12-27T02:05:56.103Z,96232.39
2017-12-27T02:08:24.436Z,96216.45
2017-12-27T02:10:52.847Z,96214.61
2017-12-27T02:13:24.925Z,96209.31
2017-12-27T02:15:53.659Z,96197.51
2017-12-27T02:18:22.243Z,96188.60
2017-12-27T02:20:50.568Z,96185.91
2017-12-27T02:23:19.828Z,96168.13
2017-12-27T02:25:48.199Z,96164.07
2017-12-27T02:28:17.022Z,96161.84
2017-12-27T02:30:45.836Z,96155.30
2017-12-27T02:33:14.698Z,96150.08
2017-12-27T02:38:41.167Z,96137.52
2017-12-27T02:41:09.496Z,96132.05
2017-12-27T02:43:38.755Z,96127.25
2017-12-27T02:46:07.744Z,96121.86
2017-12-27T02:48:36.951Z,96108.77
2017-12-27T02:51:05.392Z,96106.89
2017-12-27T02:53:33.765Z,96097.47
2017-12-27T02:56:03.468Z,96083.84
2017-12-27T02:58:31.772Z,96080.00
2017-12-27T03:01:00.164Z,96065.64
2017-12-27T03:03:28.479Z,96059.28
2017-12-27T03:05:57.194Z,96049.34
2017-12-27T03:08:25.639Z,96049.02
2017-12-27T03:10:55.391Z,96044.94
2017-12-27T03:13:24.185Z,96037.70
2017-12-27T03:15:54.447Z,96041.97
2017-12-27T03:18:23.028Z,96022.52
2017-12-27T03:20:51.907Z,96018.67
2017-12-27T03:23:20.887Z,96008.69
2017-12-27T03:25:55.280Z,95997.13
2017-12-27T03:28:23.907Z,95994.96
2017-12-27T03:30:52.220Z,95981.20
2017-12-27T03:33:20.591Z,95974.74
2017-12-27T03:35:49.457Z,95976.80
2017-12-27T03:38:17.892Z,95972.92
2017-12-27T03:40:46.200Z,95963.50
2017-12-27T03:43:15.063Z,95966.64
2017-12-27T03:45:43.569Z,95960.53
2017-12-27T03:48:12.504Z,95962.27
2017-12-27T03:50:41.827Z,95952.91
2017-12-27T03:53:11.029Z,95949.91
2017-12-27T03:55:39.332Z,95943.63
2017-12-27T03:58:07.888Z,95940.92
2017-12-27T04:00:42.198Z,95936.09
2017-12-27T04:03:10.690Z,95929.67
2017-12-27T04:05:39.787Z,95921.34
2017-12-27T04:08:08.100Z,95917.70
2017-12-27T04:10:36.505Z,95911.90
2017-12-27T04:13:04.820Z,95898.54
2017-12-27T04:15:33.477Z,95895.06
2017-12-27T04:18:02.632Z,95880.25
2017-12-27T04:20:30.940Z,95871.18
2017-12-27T04:23:00.112Z,95869.98
2017-12-27T04:25:29.124Z,95869.33
2017-12-27T04:27:58.990Z,95855.98
2017-12-27T04:30:27.399Z,95851.97
2017-12-27T04:32:56.201Z,95840.47
2017-12-27T04:35:24.544Z,95826.46
2017-12-27T04:37:53.211Z,95825.48
2017-12-27T04:40:21.675Z,95822.08
2017-12-27T04:42:50.531Z,95831.26
2017-12-27T04:45:19.535Z,95819.25
2017-12-27T04:47:48.523Z,95808.01
2017-12-27T04:50:16.940Z,95804.05
2017-12-27T04:52:45.256Z,95790.95
2017-12-27T04:55:13.616Z,95779.92
2017-12-27T04:57:42.445Z,95773.92
2017-12-27T05:00:11.211Z,95769.14
2017-12-27T05:02:39.932Z,95765.13
2017-12-27T05:05:08.245Z,95761.73
2017-12-27T05:07:36.556Z,95754.19
2017-12-27T05:10:04.912Z,95752.34
2017-12-27T05:12:33.227Z,95739.05
2017-12-27T05:15:01.560Z,95737.66
2017-12-27T05:17:30.440Z,95735.98
2017-12-27T05:19:59.395Z,95739.52
2017-12-27T05:22:28.706Z,95741.11
2017-12-27T05:24:57.583Z,95734.38
2017-12-27T05:27:26.603Z,95737.80
2017-12-27T05:29:54.951Z,95728.74
2017-12-27T05:32:24.974Z,95728.60
2017-12-27T05:34:53.767Z,95728.11
2017-12-27T05:37:22.335Z,95732.19
2017-12-27T05:39:51.436Z,95744.56
2017-12-27T05:42:19.756Z,95736.50
2017-12-27T05:44:48.077Z,95741.11
2017-12-27T05:47:16.440Z,95745.30
2017-12-27T05:49:45.261Z,95746.00
2017-12-27T05:52:13.595Z,95743.78
2017-12-27T05:54:41.959Z,95736.41
2017-12-27T05:57:10.319Z,95732.83
2017-12-27T05:59:40.108Z,95726.02
2017-12-27T06:02:08.940Z,95738.28
2017-12-27T06:04:37.339Z,95740.47
2017-12-27T06:07:05.648Z,95746.97
2017-12-27T06:09:34.012Z,95746.83
2017-12-27T06:12:02.416Z,95752.21
2017-12-27T06:14:30.845Z,95750.66
2017-12-27T06:16:59.590Z,95748.23
2017-12-27T06:19:28.675Z,95743.02
2017-12-27T06:21:57.728Z,95741.29
2017-12-27T06:24:26.100Z,95740.33
2017-12-27T06:26:55.089Z,95734.92
2017-12-27T06:29:23.399Z,95736.86
2017-12-27T06:31:51.787Z,95739.95
2017-12-27T06:34:20.106Z,95734.91
2017-12-27T06:36:48.471Z,95731.00
2017-12-27T06:39:17.367Z,95734.41
2017-12-27T06:41:46.402Z,95728.27
2017-12-27T06:44:15.180Z,95728.37
2017-12-27T06:46:43.796Z,95732.16
2017-12-27T06:49:12.095Z,95725.13
2017-12-27T06:51:40.431Z,95722.31
2017-12-27T06:54:08.831Z,95730.64
2017-12-27T06:56:37.135Z,95719.30
2017-12-27T06:59:06.218Z,95722.86
2017-12-27T07:01:34.600Z,95723.47
2017-12-27T07:04:03.360Z,95714.12
2017-12-27T07:06:31.668Z,95712.59
2017-12-27T07:09:00.216Z,95715.20
2017-12-27T07:11:28.978Z,95701.45
2017-12-27T07:13:58.227Z,95706.71
2017-12-27T07:16:27.111Z,95713.02
2017-12-27T07:18:55.956Z,95708.52
2017-12-27T07:21:24.576Z,95708.48
2017-12-27T07:23:53.509Z,95703.44
2017-12-27T07:26:22.584Z,95690.08
2017-12-27T07:28:51.060Z,95687.42
2017-12-27T07:33:55.103Z,95694.36
2017-12-27T07:36:23.395Z,95703.14
2017-12-27T07:38:51.707Z,95699.59
2017-12-27T07:41:20.743Z,95686.30
2017-12-27T07:43:49.840Z,95685.34
2017-12-27T07:46:18.233Z,95689.92
2017-12-27T07:48:47.367Z,95682.88
2017-12-27T07:51:16.440Z,95696.55
2017-12-27T07:53:45.227Z,95685.81
2017-12-27T07:56:15.143Z,95674.34
2017-12-27T07:58:44.283Z,95678.86
2017-12-27T08:01:13.186Z,95673.45
2017-12-27T08:03:42.474Z,95665.29
2017-12-27T08:06:10.779Z,95657.21
2017-12-27T08:08:39.104Z,95652.69
2017-12-27T08:11:07.495Z,95643.43
2017-12-27T08:13:38.563Z,95652.25
2017-12-27T08:16:08.731Z,95648.97
2017-12-27T08:18:37.073Z,95637.14
2017-12-27T08:21:05.499Z,95641.98
2017-12-27T08:23:34.652Z,95644.71
2017-12-27T08:26:03.163Z,95642.02
2017-12-27T08:28:31.932Z,95636.72
2017-12-27T08:31:00.264Z,95639.24
2017-12-27T08:33:30.012Z,95633.77
2017-12-27T08:35:59.031Z,95640.03
2017-12-27T08:38:28.309Z,95626.24
2017-12-27T08:40:56.787Z,95627.59
2017-12-27T08:43:25.782Z,95629.83
2017-12-27T08:45:54.625Z,95625.61
2017-12-27T08:48:22.995Z,95618.52
2017-12-27T08:50:52.023Z,95621.62
2017-12-27T08:53:21.090Z,95620.02
2017-12-27T08:55:50.323Z,95615.66
2017-12-27T08:58:19.000Z,95617.23
2017-12-27T09:00:47.616Z,95609.32
2017-12-27T09:03:16.922Z,95607.44
2017-12-27T09:05:45.709Z,95609.13
2017-12-27T09:08:14.537Z,95608.59
2017-12-27T09:10:43.406Z,95601.17
2017-12-27T09:13:11.752Z,95603.74
2017-12-27T09:15:40.077Z,95600.42
2017-12-27T09:18:08.436Z,95603.66
2017-12-27T09:20:37.580Z,95612.30
2017-12-27T09:23:05.880Z,95618.05
2017-12-27T09:25:34.283Z,95629.76
2017-12-27T09:28:03.546Z,95629.22
2017-12-27T09:30:32.585Z,95629.73
2017-12-27T09:33:00.988Z,95623.48
2017-12-27T09:35:30.141Z,95626.61
2017-12-27T09:37:59.439Z,95627.39
2017-12-27T09:40:28.004Z,95639.64
2017-12-27T09:42:57.253Z,95628.39
2017-12-27T09:45:25.571Z,95616.34
2017-12-27T09:47:54.027Z,95615.12
2017-12-27T09:50:23.124Z,95615.16
2017-12-27T09:52:51.440Z,95606.02
2017-12-27T09:55:19.812Z,95604.93
2017-12-27T09:57:48.559Z,95599.50
2017-12-27T10:00:16.883Z,95595.15
2017-12-27T10:02:45.955Z,95592.79
2017-12-27T10:05:14.284Z,95588.44
2017-12-27T10:07:42.583Z,95589.38
2017-12-27T10:10:11.600Z,95584.38
2017-12-27T10:12:40.717Z,95580.21
2017-12-27T10:15:15.684Z,95570.23
2017-12-27T10:17:44.372Z,95570.47
2017-12-27T10:20:12.877Z,95557.94
2017-12-27T10:22:41.264Z,95546.80
2017-12-27T10:25:10.269Z,95529.18
2017-12-27T10:27:38.584Z,95528.09
2017-12-27T10:30:07.733Z,95515.09
2017-12-27T10:32:36.051Z,95498.27
2017-12-27T10:35:04.983Z,95486.70
2017-12-27T10:37:34.150Z,95472.25
2017-12-27T10:40:02.475Z,95457.75
2017-12-27T10:42:30.967Z,95441.23
2017-12-27T10:44:59.797Z,95433.22
2017-12-27T10:47:28.584Z,95419.14
2017-12-27T10:49:57.140Z,95420.63
2017-12-27T10:52:25.539Z,95421.70
2017-12-27T10:54:54.524Z,95416.69
2017-12-27T10:57:23.564Z,95422.45
2017-12-27T10:59:52.181Z,95435.50
2017-12-27T11:02:21.107Z,95433.91
2017-12-27T11:04:49.466Z,95418.83
2017-12-27T11:07:17.836Z,95422.65
2017-12-27T11:09:49.155Z,95424.15
2017-12-27T11:12:18.144Z,95420.41
2017-12-27T11:14:47.398Z,95419.97
2017-12-27T11:17:16.404Z,95411.09
2017-12-27T11:19:45.375Z,95416.41
2017-12-27T11:22:16.983Z,95412.37
2017-12-27T11:24:45.596Z,95409.94
2017-12-27T11:27:13.935Z,95412.47
2017-12-27T11:29:42.637Z,95408.41
2017-12-27T11:32:11.760Z,95401.97
2017-12-27T11:34:40.848Z,95407.17
2017-12-27T11:37:10.147Z,95409.70
2017-12-27T11:39:39.058Z,95401.77
2017-12-27T11:42:08.334Z,95394.28
2017-12-27T11:47:12.431Z,95382.80
2017-12-27T11:49:47.851Z,95381.87
2017-12-27T11:52:19.397Z,95368.33
2017-12-27T11:54:50.919Z,95361.69
2017-12-27T11:57:23.084Z,95361.03
2017-12-27T11:59:53.298Z,95350.00
2017-12-27T12:02:21.942Z,95364.41
2017-12-27T12:04:56.208Z,95355.28
2017-12-27T12:07:28.735Z,95355.26
2017-12-27T12:10:00.317Z,95358.91
2017-12-27T12:12:28.933Z,95338.94
2017-12-27T12:14:57.517Z,95341.70
2017-12-27T12:17:26.035Z,95336.84
2017-12-27T12:19:54.857Z,95344.13
2017-12-27T12:22:24.119Z,95348.62
2017-12-27T12:24:52.440Z,95353.45
2017-12-27T12:27:20.768Z,95344.59
2017-12-27T12:29:49.148Z,95358.30
2017-12-27T12:32:17.459Z,95358.11
2017-12-27T12:34:47.973Z,95364.33
2017-12-27T12:37:16.911Z,95358.92
2017-12-27T12:39:46.061Z,95352.13
2017-12-27T12:42:15.079Z,95351.87
2017-12-27T12:44:43.501Z,95356.69
2017-12-27T12:47:13.950Z,95346.45
2017-12-27T12:49:44.823Z,95351.95
2017-12-27T12:52:14.961Z,95353.70
2017-12-27T12:54:43.684Z,95354.91
2017-12-27T12:57:12.119Z,95362.09
2017-12-27T12:59:41.401Z,95361.08
2017-12-27T13:02:10.300Z,95364.98
2017-12-27T13:04:39.569Z,95362.31
2017-12-27T13:07:07.996Z,95365.16
2017-12-27T13:09:36.385Z,95354.87
2017-12-27T13:12:04.867Z,95356.41
2017-12-27T13:14:34.119Z,95350.63
2017-12-27T13:17:02.580Z,95344.80
2017-12-27T13:19:31.067Z,95345.20
2017-12-27T13:21:59.787Z,95338.09
2017-12-27T13:24:28.936Z,95339.06
2017-12-27T13:26:57.460Z,95338.30
2017-12-27T13:29:26.543Z,95335.80
2017-12-27T13:31:55.015Z,95334.40
2017-12-27T13:34:24.288Z,95329.98
2017-12-27T13:36:53.518Z,95326.48
2017-12-27T13:39:24.126Z,95320.55
2017-12-27T13:41:53.171Z,95322.33
2017-12-27T13:44:22.431Z,95313.00
2017-12-27T13:46:52.343Z,95310.19
2017-12-27T13:49:22.907Z,95308.70
2017-12-27T13:51:52.065Z,95311.63
2017-12-27T13:54:21.764Z,95308.43
2017-12-27T13:56:50.092Z,95306.89
2017-12-27T13:59:19.974Z,95305.89
2017-12-27T14:01:48.435Z,95301.80
2017-12-27T14:04:17.079Z,95297.94
2017-12-27T14:06:50.048Z,95295.88
2017-12-27T14:09:22.178Z,95298.14
2017-12-27T14:11:54.033Z,95282.61
2017-12-27T14:14:23.950Z,95281.35
2017-12-27T14:16:56.167Z,95269.80
2017-12-27T14:19:25.141Z,95265.87
2017-12-27T14:21:54.345Z,95264.82
2017-12-27T14:24:23.395Z,95266.13
2017-12-27T14:26:51.800Z,95264.91
2017-12-27T14:29:21.085Z,95268.31
2017-12-27T14:31:52.284Z,95273.70
2017-12-27T14:34:21.424Z,95270.31
2017-12-27T14:36:49.840Z,95271.90
2017-12-27T14:39:19.007Z,95269.17
2017-12-27T14:41:47.923Z,95277.81
2017-12-27T14:44:17.583Z,95278.11
2017-12-27T14:46:46.270Z,95285.55
2017-12-27T14:49:15.176Z,95279.73
2017-12-27T14:51:44.257Z,95288.80
2017-12-27T14:54:12.607Z,95293.41
2017-12-27T14:56:41.115Z,95291.97
2017-12-27T14:59:10.048Z,95292.86
2017-12-27T15:01:39.159Z,95293.59
2017-12-27T15:04:07.487Z,95297.95
2017-12-27T15:06:35.828Z,95289.74
2017-12-27T15:09:04.659Z,95292.86
2017-12-27T15:11:33.918Z,95293.62
2017-12-27T15:14:03.011Z,95295.19
2017-12-27T15:16:31.628Z,95297.48
2017-12-27T15:19:02.728Z,95292.48
2017-12-27T15:21:32.495Z,95289.08
2017-12-27T15:24:02.483Z,95289.09
2017-12-27T15:26:30.964Z,95288.90
2017-12-27T15:28:59.054Z,95284.56
2017-12-27T15:31:27.417Z,95288.35
2017-12-27T15:33:56.463Z,95287.03
2017-12-27T15:36:25.255Z,95280.16
2017-12-27T15:38:53.801Z,95288.82
2017-12-27T15:41:22.225Z,95298.77
2017-12-27T15:43:52.623Z,95295.57
2017-12-27T15:46:21.972Z,95298.06
2017-12-27T15:48:51.071Z,95299.58
2017-12-27T15:51:21.008Z,95306.77
2017-12-27T15:56:56.981Z,95305.16
2017-12-27T15:59:26.079Z,95306.16
2017-12-27T16:01:54.936Z,95307.09
2017-12-27T16:04:24.077Z,95303.30
2017-12-27T16:06:52.836Z,95298.87
2017-12-27T16:09:22.428Z,95305.63
2017-12-27T16:11:50.835Z,95307.08
2017-12-27T16:14:21.353Z,95302.87
2017-12-27T16:16:50.844Z,95300.53
2017-12-27T16:19:20.356Z,95297.34
2017-12-27T16:21:50.237Z,95289.49
2017-12-27T16:24:21.184Z,95294.64
2017-12-27T16:26:50.188Z,95295.37
2017-12-27T16:29:24.928Z,95289.39
2017-12-27T16:31:53.943Z,95290.16
2017-12-27T16:34:22.262Z,95293.38
2017-12-27T16:36:50.660Z,95294.94
2017-12-27T16:39:19.109Z,95293.09
2017-12-27T16:41:47.922Z,95285.53
2017-12-27T16:44:17.039Z,95290.77
2017-12-27T16:46:45.971Z,95297.58
2017-12-27T16:49:14.454Z,95300.64
2017-12-27T16:51:43.027Z,95292.72
2017-12-27T16:54:11.732Z,95288.60
2017-12-27T16:56:40.092Z,95285.34
2017-12-27T16:59:08.450Z,95289.17
2017-12-27T17:01:36.769Z,95288.73
2017-12-27T17:04:05.140Z,95292.78
2017-12-27T17:06:33.459Z,95284.75
2017-12-27T17:09:01.824Z,95289.66
2017-12-27T17:11:30.230Z,95295.41
2017-12-27T17:13:59.602Z,95286.23
2017-12-27T17:16:28.072Z,95286.02
2017-12-27T17:18:56.556Z,95288.81
2017-12-27T17:21:25.014Z,95283.23
2017-12-27T17:23:53.445Z,95285.64
2017-12-27T17:26:21.669Z,95288.88
2017-12-27T17:28:50.056Z,95289.61
2017-12-27T17:31:18.564Z,95288.80
2017-12-27T17:33:46.965Z,95293.02
2017-12-27T17:36:15.311Z,95282.39
2017-12-27T17:38:43.620Z,95286.66
2017-12-27T17:41:12.006Z,95289.95
2017-12-27T17:43:40.349Z,95294.97
2017-12-27T17:46:08.731Z,95283.16
2017-12-27T17:48:37.171Z,95291.22
2017-12-27T17:51:05.517Z,95287.26
2017-12-27T17:53:33.875Z,95292.68
2017-12-27T17:56:02.317Z,95301.78
2017-12-27T17:58:30.693Z,95306.20
2017-12-27T18:00:59.063Z,95302.42
2017-12-27T18:03:27.439Z,95298.36
2017-12-27T18:05:55.941Z,95300.95
2017-12-27T18:08:25.482Z,95298.78
2017-12-27T18:10:53.846Z,95300.52
2017-12-27T18:13:22.251Z,95308.97
2017-12-27T18:15:50.628Z,95310.52
2017-12-27T18:18:19.002Z,95318.09
2017-12-27T18:20:47.539Z,95312.40
2017-12-27T18:23:15.983Z,95313.55
2017-12-27T18:25:44.343Z,95315.47
2017-12-27T18:28:12.749Z,95320.23
2017-12-27T18:30:41.112Z,95324.91
2017-12-27T18:33:09.563Z,95327.10
2017-12-27T18:35:37.963Z,95325.73
2017-12-27T18:38:06.379Z,95323.02
2017-12-27T18:40:34.751Z,95332.53
2017-12-27T18:43:03.241Z,95334.79
2017-12-27T18:45:31.619Z,95336.00
2017-12-27T18:48:00.095Z,95341.19
2017-12-27T18:50:29.355Z,95341.91
2017-12-27T18:52:57.723Z,95335.07
2017-12-27T18:55:26.146Z,95339.00
2017-12-27T18:57:55.308Z,95332.43
2017-12-27T19:00:23.690Z,95330.30
2017-12-27T19:02:52.060Z,95331.67
2017-12-27T19:05:20.491Z,95340.59
2017-12-27T19:07:49.755Z,95347.83
2017-12-27T19:10:18.117Z,95348.09
2017-12-27T19:12:46.496Z,95356.45
2017-12-27T19:15:14.898Z,95364.93
2017-12-27T19:17:43.395Z,95366.63
2017-12-27T19:20:11.762Z,95373.94
2017-12-27T19:22:40.646Z,95376.28
2017-12-27T19:25:09.134Z,95384.46
2017-12-27T19:27:42.987Z,95382.20
2017-12-27T19:30:13.003Z,95388.75
2017-12-27T19:32:41.988Z,95390.16
2017-12-27T19:35:11.209Z,95403.13
2017-12-27T19:37:40.277Z,95408.73
2017-12-27T19:40:08.830Z,95412.72
2017-12-27T19:42:38.371Z,95421.60
2017-12-27T19:45:07.428Z,95426.08
2017-12-27T19:47:36.519Z,95429.48
2017-12-27T19:50:05.005Z,95432.52
2017-12-27T19:52:33.919Z,95422.81
2017-12-27T19:55:02.983Z,95419.08
2017-12-27T19:57:32.466Z,95420.66
2017-12-27T20:00:01.190Z,95423.95
2017-12-27T20:02:30.343Z,95428.03
2017-12-27T20:04:59.479Z,95433.08
2017-12-27T20:07:28.461Z,95428.35
2017-12-27T20:09:57.013Z,95425.83
2017-12-27T20:12:25.870Z,95428.41
2017-12-27T20:15:00.106Z,95428.55
2017-12-27T20:17:31.879Z,95434.87
2017-12-27T20:20:00.554Z,95436.69
2017-12-27T20:22:29.717Z,95431.64
2017-12-27T20:24:58.846Z,95440.91
2017-12-27T20:27:27.870Z,95449.92
2017-12-27T20:29:56.847Z,95445.58
2017-12-27T20:32:25.776Z,95452.38
2017-12-27T20:34:54.241Z,95453.96
2017-12-27T20:37:22.939Z,95465.49
2017-12-27T20:39:51.297Z,95469.81
2017-12-27T20:42:19.650Z,95470.11
2017-12-27T20:44:55.516Z,95481.27
2017-12-27T20:47:23.871Z,95483.23
2017-12-27T20:49:52.226Z,95487.77
2017-12-27T20:52:20.758Z,95491.47
2017-12-27T20:54:49.167Z,95493.31
2017-12-27T20:57:17.528Z,95491.72
2017-12-27T20:59:46.027Z,95495.94
2017-12-27T21:02:14.386Z,95505.84
2017-12-27T21:04:42.737Z,95504.41
2017-12-27T21:07:11.170Z,95504.84
2017-12-27T21:09:39.562Z,95514.55
2017-12-27T21:12:08.691Z,95511.30
2017-12-27T21:14:37.122Z,95505.05
2017-12-27T21:17:05.479Z,95504.67
2017-12-27T21:19:33.836Z,95507.77
2017-12-27T21:22:02.231Z,95513.88
2017-12-27T21:24:30.587Z,95509.72
2017-12-27T21:26:58.943Z,95518.56
2017-12-27T21:29:27.363Z,95511.37
2017-12-27T21:31:55.825Z,95513.05
2017-12-27T21:34:24.187Z,95513.00
2017-12-27T21:36:52.622Z,95522.91
2017-12-27T21:39:20.979Z,95525.27
2017-12-27T21:41:49.342Z,95529.44
2017-12-27T21:44:17.771Z,95538.53
2017-12-27T21:46:46.193Z,95544.97
2017-12-27T21:49:20.810Z,95546.39
2017-12-27T21:51:49.166Z,95546.77
2017-12-27T21:54:17.531Z,95552.22
2017-12-27T21:56:45.946Z,95549.11
2017-12-27T21:59:19.852Z,95549.02
2017-12-27T22:01:49.055Z,95552.40
2017-12-27T22:04:17.407Z,95559.55
2017-12-27T22:06:46.513Z,95556.76
2017-12-27T22:09:15.698Z,95559.82
2017-12-27T22:11:44.056Z,95563.22
2017-12-27T22:14:12.418Z,95565.52
2017-12-27T22:16:40.839Z,95564.50
2017-12-27T22:19:09.962Z,95572.21
2017-12-27T22:21:38.327Z,95569.31
2017-12-27T22:24:06.751Z,95573.22
2017-12-27T22:26:35.164Z,95576.73
2017-12-27T22:29:03.522Z,95581.92
2017-12-27T22:31:31.997Z,95592.84
2017-12-27T22:34:01.234Z,95590.79
2017-12-27T22:36:29.882Z,95588.03
2017-12-27T22:38:59.271Z,95598.53
2017-12-27T22:41:28.335Z,95603.77
2017-12-27T22:43:56.968Z,95600.59
2017-12-27T22:46:25.715Z,95608.42
2017-12-27T22:48:54.922Z,95610.72
2017-12-27T22:51:24.063Z,95616.03
2017-12-27T22:53:53.110Z,95620.84
2017-12-27T22:56:22.035Z,95624.07
2017-12-27T22:58:50.391Z,95627.27
2017-12-27T23:01:19.496Z,95624.10
2017-12-27T23:03:47.867Z,95626.80
2017-12-27T23:06:16.972Z,95620.57
2017-12-27T23:08:46.025Z,95608.02
2017-12-27T23:11:14.982Z,95600.76
2017-12-27T23:13:44.238Z,95599.80
2017-12-27T23:16:13.371Z,95599.69
2017-12-27T23:18:42.267Z,95614.91
2017-12-27T23:21:10.994Z,95611.84
2017-12-27T23:23:40.618Z,95610.27
2017-12-27T23:26:09.066Z,95617.95
2017-12-27T23:28:37.474Z,95618.25
2017-12-27T23:31:05.918Z,95615.66
2017-12-27T23:33:34.332Z,95611.72
2017-12-27T23:36:02.717Z,95624.11
2017-12-27T23:38:31.780Z,95633.98
2017-12-27T23:41:00.966Z,95630.86
2017-12-27T23:43:29.324Z,95638.66
2017-12-27T23:45:57.680Z,95649.47
2017-12-27T23:48:26.070Z,95639.76
2017-12-27T23:50:54.425Z,95645.04
2017-12-27T23:53:22.773Z,95644.52
2017-12-27T23:55:51.181Z,95647.24
2017-12-27T23:58:19.500Z,95637.12
